createdAt,value
2022-09-13T00:02:34.398Z,2.20
2022-09-13T00:05:20.211Z,3.00
2022-09-13T00:08:06.731Z,2.30
2022-09-13T00:10:52.596Z,2.20
2022-09-13T00:13:38.463Z,2.60
2022-09-13T00:16:27.131Z,2.30
2022-09-13T00:19:13.000Z,3.10
2022-09-13T00:21:58.898Z,3.05
2022-09-13T00:24:44.596Z,2.80
2022-09-13T00:27:30.529Z,3.55
2022-09-13T00:30:16.573Z,2.50
2022-09-13T00:33:04.989Z,2.83
2022-09-13T00:35:51.013Z,3.13
2022-09-13T00:38:38.459Z,2.55
2022-09-13T00:41:24.068Z,2.85
2022-09-13T00:45:05.777Z,2.70
2022-09-13T00:48:01.548Z,2.42
2022-09-13T00:50:54.630Z,2.10
2022-09-13T00:53:44.588Z,2.15
2022-09-13T00:56:37.899Z,2.05
2022-09-13T00:59:29.100Z,2.30
2022-09-13T01:02:15.182Z,1.92
2022-09-13T01:05:01.415Z,2.05
2022-09-13T01:07:47.912Z,1.88
2022-09-13T01:10:36.061Z,2.25
2022-09-13T01:13:23.805Z,1.83
2022-09-13T01:16:09.863Z,2.15
2022-09-13T01:18:55.839Z,1.85
2022-09-13T01:21:57.088Z,2.03
2022-09-13T01:25:16.107Z,2.30
2022-09-13T01:28:08.069Z,2.20
2022-09-13T01:31:02.644Z,1.98
2022-09-13T01:33:51.238Z,2.22
2022-09-13T01:37:04.213Z,1.77
2022-09-13T01:40:17.555Z,2.35
2022-09-13T01:43:03.202Z,2.30
2022-09-13T01:46:07.203Z,2.17
2022-09-13T01:49:02.320Z,2.08
2022-09-13T01:51:51.798Z,2.10
2022-09-13T01:54:56.442Z,1.88
2022-09-13T01:57:52.989Z,1.77
2022-09-13T02:00:57.398Z,2.22
2022-09-13T02:04:09.164Z,1.80
2022-09-13T02:07:17.741Z,1.83
2022-09-13T02:10:12.425Z,1.88
2022-09-13T02:12:59.621Z,1.52
2022-09-13T02:15:48.370Z,2.13
2022-09-13T02:18:49.623Z,1.85
2022-09-13T02:22:24.864Z,1.98
2022-09-13T02:25:14.642Z,2.05
2022-09-13T02:28:03.718Z,1.75
2022-09-13T02:30:52.345Z,1.63
2022-09-13T02:33:42.485Z,2.10
2022-09-13T02:36:31.767Z,1.67
2022-09-13T02:39:18.627Z,1.88
2022-09-13T02:42:27.642Z,2.30
2022-09-13T02:45:22.611Z,1.58
2022-09-13T02:48:21.100Z,1.75
2022-09-13T02:51:15.319Z,1.55
2022-09-13T02:54:10.486Z,1.73
2022-09-13T02:57:01.148Z,2.00
2022-09-13T02:59:48.584Z,1.92
2022-09-13T03:02:35.375Z,1.58
2022-09-13T03:05:21.471Z,1.70
2022-09-13T03:08:10.579Z,2.10
2022-09-13T03:10:56.361Z,1.58
2022-09-13T03:14:17.432Z,1.80
2022-09-13T03:17:22.111Z,2.00
2022-09-13T03:20:12.627Z,1.80
2022-09-13T03:23:22.497Z,1.92
2022-09-13T03:26:14.789Z,1.90
2022-09-13T03:29:11.672Z,2.42
2022-09-13T03:32:28.012Z,2.22
2022-09-13T03:35:33.828Z,1.90
2022-09-13T03:38:24.933Z,1.77
2022-09-13T03:41:17.311Z,1.95
2022-09-13T03:44:07.242Z,2.20
2022-09-13T03:46:57.453Z,2.15
2022-09-13T03:49:44.570Z,2.15
2022-09-13T03:52:30.991Z,2.00
2022-09-13T03:55:19.955Z,1.88
2022-09-13T03:58:06.314Z,1.98
2022-09-13T04:00:54.390Z,1.95
2022-09-13T04:03:40.347Z,2.00
2022-09-13T04:06:26.205Z,2.22
2022-09-13T04:09:12.052Z,3.13
2022-09-13T04:11:58.073Z,2.55
2022-09-13T04:14:44.118Z,2.08
2022-09-13T04:17:30.034Z,2.10
2022-09-13T04:20:15.962Z,3.33
2022-09-13T04:23:01.879Z,3.60
2022-09-13T04:25:47.914Z,2.70
2022-09-13T04:28:33.854Z,4.05
2022-09-13T04:31:19.601Z,2.58
2022-09-13T04:34:06.416Z,3.10
2022-09-13T04:36:53.137Z,3.70
2022-09-13T04:39:39.352Z,3.67
2022-09-13T04:42:25.169Z,3.67
2022-09-13T04:45:11.129Z,2.92
2022-09-13T04:47:57.176Z,2.28
2022-09-13T04:50:44.939Z,2.75
2022-09-13T04:53:31.793Z,2.55
2022-09-13T04:56:20.092Z,2.83
2022-09-13T04:59:05.921Z,2.60
2022-09-13T05:01:51.642Z,2.92
2022-09-13T05:04:37.271Z,3.10
2022-09-13T05:07:23.018Z,2.60
2022-09-13T05:10:09.520Z,2.80
2022-09-13T05:12:55.776Z,2.88
2022-09-13T05:15:41.780Z,3.00
2022-09-13T05:18:32.049Z,3.28
2022-09-13T05:21:18.783Z,2.88
2022-09-13T05:24:04.920Z,3.05
2022-09-13T05:26:50.886Z,3.13
2022-09-13T05:29:36.538Z,3.10
2022-09-13T05:32:22.596Z,2.60
2022-09-13T05:35:09.470Z,2.90
2022-09-13T05:37:55.186Z,2.80
2022-09-13T05:40:41.126Z,3.08
2022-09-13T05:43:29.308Z,3.10
2022-09-13T05:46:17.600Z,2.53
2022-09-13T05:49:03.985Z,2.80
2022-09-13T05:51:49.780Z,3.95
2022-09-13T05:54:37.090Z,4.03
2022-09-13T05:57:23.056Z,3.55
2022-09-13T06:00:09.762Z,2.60
2022-09-13T06:03:13.385Z,2.90
2022-09-13T06:05:59.783Z,3.25
2022-09-13T06:08:46.653Z,2.58
2022-09-13T06:11:32.846Z,2.83
2022-09-13T06:14:21.430Z,3.20
2022-09-13T06:17:08.441Z,3.28
2022-09-13T06:20:01.600Z,2.33
2022-09-13T06:22:49.489Z,2.88
2022-09-13T06:25:35.370Z,3.28
2022-09-13T06:28:21.535Z,3.08
2022-09-13T06:31:12.905Z,2.35
2022-09-13T06:34:02.559Z,2.47
2022-09-13T06:36:48.286Z,2.40
2022-09-13T06:39:34.344Z,2.50
2022-09-13T06:42:20.264Z,2.50
2022-09-13T06:45:07.108Z,2.55
2022-09-13T06:47:55.950Z,8.05
2022-09-13T06:50:42.128Z,57.75
2022-09-13T06:53:29.046Z,51.75
2022-09-13T06:56:17.230Z,13.90
2022-09-13T06:59:06.376Z,11.95
2022-09-13T07:01:52.457Z,6.93
2022-09-13T07:04:38.227Z,5.63
2022-09-13T07:07:24.224Z,6.93
2022-09-13T07:10:10.259Z,35.80
2022-09-13T07:12:56.001Z,19.45
2022-09-13T07:15:41.919Z,11.35
2022-09-13T07:18:27.517Z,8.30
2022-09-13T07:21:13.239Z,8.75
2022-09-13T07:23:59.032Z,5.65
2022-09-13T07:26:46.713Z,4.28
2022-09-13T07:29:32.771Z,4.20
2022-09-13T07:32:19.743Z,3.78
2022-09-13T07:35:08.183Z,3.13
2022-09-13T07:37:54.245Z,3.60
2022-09-13T07:40:40.219Z,3.92
2022-09-13T07:43:26.467Z,4.57
2022-09-13T07:46:13.548Z,3.38
2022-09-13T07:49:01.027Z,4.05
2022-09-13T07:51:47.183Z,3.25
2022-09-13T07:54:34.683Z,4.50
2022-09-13T07:57:20.799Z,3.35
2022-09-13T08:00:07.583Z,3.58
2022-09-13T08:02:57.399Z,6.18
2022-09-13T08:05:43.377Z,22.17
2022-09-13T08:08:29.905Z,32.08
2022-09-13T08:11:28.234Z,7.65
2022-09-13T08:14:16.203Z,5.75
2022-09-13T08:17:02.136Z,11.13
2022-09-13T08:19:47.938Z,6.95
2022-09-13T08:22:33.492Z,5.03
2022-09-13T08:25:19.293Z,5.35
2022-09-13T08:28:10.852Z,4.28
2022-09-13T08:30:56.680Z,3.90
2022-09-13T08:33:47.461Z,3.65
2022-09-13T08:36:33.457Z,3.20
2022-09-13T08:39:19.684Z,3.67
2022-09-13T08:42:25.169Z,4.32
2022-09-13T08:45:11.127Z,3.20
2022-09-13T08:48:19.209Z,3.05
2022-09-13T08:51:08.263Z,2.67
2022-09-13T08:53:54.548Z,2.88
2022-09-13T08:56:53.244Z,3.17
2022-09-13T08:59:54.832Z,3.00
2022-09-13T09:03:16.702Z,2.60
2022-09-13T09:06:02.697Z,2.47
2022-09-13T09:09:00.268Z,2.47
2022-09-13T09:11:54.349Z,2.28
2022-09-13T09:14:44.440Z,2.88
2022-09-13T09:17:46.778Z,2.60
2022-09-13T09:20:32.872Z,2.30
2022-09-13T09:23:22.019Z,2.20
2022-09-13T09:26:22.823Z,3.58
2022-09-13T09:29:36.186Z,2.35
2022-09-13T09:33:03.794Z,2.28
2022-09-13T09:36:05.733Z,2.38
2022-09-13T09:38:52.076Z,2.53
2022-09-13T09:41:38.512Z,2.70
2022-09-13T09:44:27.865Z,2.22
2022-09-13T09:47:20.400Z,2.17
2022-09-13T09:50:21.175Z,2.40
2022-09-13T09:53:27.023Z,2.20
2022-09-13T09:56:24.393Z,2.22
2022-09-13T09:59:27.152Z,2.30
2022-09-13T10:02:20.544Z,2.03
2022-09-13T10:08:05.290Z,2.10
2022-09-13T10:10:57.696Z,2.05
2022-09-13T10:14:03.149Z,2.20
2022-09-13T10:17:08.959Z,2.17
2022-09-13T10:19:59.425Z,1.90
2022-09-13T10:22:45.558Z,2.03
2022-09-13T10:25:31.945Z,1.92
2022-09-13T10:28:19.760Z,1.85
2022-09-13T10:31:14.793Z,5.70
2022-09-13T10:34:07.804Z,2.00
2022-09-13T10:37:03.627Z,1.80
2022-09-13T10:40:07.475Z,1.50
2022-09-13T10:42:56.311Z,1.60
2022-09-13T10:45:42.994Z,1.52
2022-09-13T10:48:31.002Z,1.60
2022-09-13T10:51:36.879Z,1.90
2022-09-13T10:54:26.010Z,1.38
2022-09-13T10:57:32.593Z,1.75
2022-09-13T11:00:25.693Z,1.80
2022-09-13T11:03:53.000Z,1.48
2022-09-13T11:07:01.646Z,1.73
2022-09-13T11:10:00.566Z,1.75
2022-09-13T11:12:55.607Z,1.60
2022-09-13T11:15:58.419Z,1.60
2022-09-13T11:19:09.047Z,1.45
2022-09-13T11:22:15.163Z,1.85
2022-09-13T11:25:10.723Z,1.33
2022-09-13T11:28:04.206Z,1.55
2022-09-13T11:31:20.140Z,1.75
2022-09-13T11:34:25.055Z,1.60
2022-09-13T11:37:14.427Z,1.48
2022-09-13T11:40:14.258Z,2.40
2022-09-13T11:43:41.339Z,1.50
2022-09-13T11:46:52.517Z,1.35
2022-09-13T11:49:48.699Z,1.73
2022-09-13T11:53:04.713Z,1.58
2022-09-13T11:56:07.031Z,1.38
2022-09-13T11:59:03.131Z,1.75
2022-09-13T12:01:53.529Z,1.63
2022-09-13T12:05:18.070Z,1.70
2022-09-13T12:08:10.113Z,4.50
2022-09-13T12:11:15.393Z,3.00
2022-09-13T12:14:05.245Z,3.95
2022-09-13T12:16:55.130Z,9.02
2022-09-13T12:19:45.503Z,8.93
2022-09-13T12:22:34.398Z,12.45
2022-09-13T12:25:25.813Z,14.82
2022-09-13T12:28:24.794Z,7.82
2022-09-13T12:31:16.318Z,3.95
2022-09-13T12:34:06.443Z,4.07
2022-09-13T12:36:58.564Z,2.38
2022-09-13T12:40:12.306Z,6.55
2022-09-13T12:43:08.694Z,6.32
2022-09-13T12:46:28.060Z,3.63
2022-09-13T12:49:19.915Z,4.18
2022-09-13T12:52:14.085Z,12.00
2022-09-13T12:55:23.757Z,4.63
2022-09-13T12:58:43.927Z,13.45
2022-09-13T13:01:31.017Z,4.68
2022-09-13T13:04:20.834Z,7.40
2022-09-13T13:07:16.888Z,10.10
2022-09-13T13:10:03.301Z,11.85
2022-09-13T13:12:49.414Z,18.95
2022-09-13T13:15:38.616Z,12.98
2022-09-13T13:18:31.882Z,14.32
2022-09-13T13:21:28.900Z,14.25
2022-09-13T13:24:18.608Z,10.73
2022-09-13T13:27:36.583Z,16.70
2022-09-13T13:30:41.057Z,5.70
2022-09-13T13:33:29.287Z,19.20
2022-09-13T13:36:22.722Z,15.65
2022-09-13T13:39:26.214Z,16.60
2022-09-13T13:42:36.266Z,15.53
2022-09-13T13:45:28.198Z,15.93
2022-09-13T13:48:15.618Z,15.18
2022-09-13T13:51:11.899Z,17.15
2022-09-13T13:54:06.410Z,11.63
2022-09-13T13:56:52.272Z,8.77
2022-09-13T13:59:38.758Z,8.85
2022-09-13T14:02:42.946Z,2.35
2022-09-13T14:06:03.211Z,6.78
2022-09-13T14:09:33.002Z,5.28
2022-09-13T14:12:56.576Z,2.30
2022-09-13T14:15:57.166Z,2.95
2022-09-13T14:19:37.239Z,3.55
2022-09-13T14:22:31.998Z,2.22
2022-09-13T14:25:22.524Z,2.00
2022-09-13T14:28:08.710Z,2.38
2022-09-13T14:30:59.285Z,2.38
2022-09-13T14:33:45.275Z,2.17
2022-09-13T14:36:31.271Z,2.95
2022-09-13T14:39:17.377Z,2.50
2022-09-13T14:42:14.455Z,2.97
2022-09-13T14:45:00.498Z,2.08
2022-09-13T14:48:01.778Z,2.47
2022-09-13T14:50:52.416Z,1.98
2022-09-13T14:53:40.797Z,2.60
2022-09-13T14:56:51.347Z,2.65
2022-09-13T14:59:52.594Z,2.47
2022-09-13T15:02:40.146Z,2.30
2022-09-13T15:05:30.101Z,2.05
2022-09-13T15:08:34.083Z,2.70
2022-09-13T15:11:37.965Z,2.72
2022-09-13T15:14:37.342Z,10.43
2022-09-13T15:17:23.193Z,3.60
2022-09-13T15:20:13.079Z,2.95
2022-09-13T15:22:58.983Z,3.63
2022-09-13T15:25:56.969Z,1.85
2022-09-13T15:28:49.067Z,2.60
2022-09-13T15:31:35.705Z,2.25
2022-09-13T15:34:25.723Z,4.22
2022-09-13T15:37:13.652Z,3.03
2022-09-13T15:40:21.123Z,3.03
2022-09-13T15:43:07.200Z,2.67
2022-09-13T15:45:53.335Z,3.95
2022-09-13T15:48:39.973Z,3.85
2022-09-13T15:51:26.143Z,3.80
2022-09-13T15:54:16.179Z,4.38
2022-09-13T15:57:02.248Z,4.50
2022-09-13T15:59:48.300Z,3.67
2022-09-13T16:02:35.731Z,7.20
2022-09-13T16:05:21.757Z,3.15
2022-09-13T16:08:11.194Z,3.10
2022-09-13T16:11:05.034Z,3.30
2022-09-13T16:13:51.057Z,4.05
2022-09-13T16:16:37.031Z,4.60
2022-09-13T16:19:26.345Z,4.65
2022-09-13T16:22:12.956Z,4.88
2022-09-13T16:24:59.141Z,4.18
2022-09-13T16:27:45.804Z,4.03
2022-09-13T16:30:33.029Z,5.03
2022-09-13T16:33:19.815Z,5.70
2022-09-13T16:36:06.005Z,5.85
2022-09-13T16:38:51.903Z,4.85
2022-09-13T16:41:40.224Z,5.68
2022-09-13T16:44:26.007Z,6.38
2022-09-13T16:47:12.111Z,5.40
2022-09-13T16:49:58.040Z,5.55
2022-09-13T16:52:44.206Z,5.97
2022-09-13T16:55:30.328Z,5.45
2022-09-13T16:58:16.249Z,4.80
2022-09-13T17:01:10.459Z,7.20
2022-09-13T17:03:57.525Z,5.15
2022-09-13T17:06:43.235Z,16.23
2022-09-13T17:09:30.872Z,7.47
2022-09-13T17:12:16.971Z,6.80
2022-09-13T17:15:02.975Z,6.22
2022-09-13T17:17:49.080Z,5.82
2022-09-13T17:20:34.878Z,5.85
2022-09-13T17:23:20.917Z,5.05
2022-09-13T17:26:07.649Z,5.50
2022-09-13T17:28:53.497Z,4.60
2022-09-13T17:31:40.242Z,4.75
2022-09-13T17:34:26.362Z,5.03
2022-09-13T17:37:12.656Z,4.18
2022-09-13T17:39:58.843Z,4.15
2022-09-13T17:42:45.304Z,5.95
2022-09-13T17:45:31.327Z,14.95
2022-09-13T17:48:17.118Z,18.75
2022-09-13T17:51:30.176Z,11.10
2022-09-13T17:54:16.370Z,6.63
2022-09-13T17:57:05.725Z,5.25
2022-09-13T17:59:52.319Z,5.20
2022-09-13T18:02:38.794Z,5.38
2022-09-13T18:05:24.809Z,3.97
2022-09-13T18:08:10.827Z,5.97
2022-09-13T18:11:13.638Z,4.15
2022-09-13T18:14:00.892Z,3.80
2022-09-13T18:16:49.310Z,3.63
2022-09-13T18:19:45.754Z,3.72
2022-09-13T18:22:32.650Z,4.30
2022-09-13T18:25:23.465Z,4.28
2022-09-13T18:28:09.735Z,4.78
2022-09-13T18:30:58.274Z,2.92
2022-09-13T18:33:45.436Z,4.47
2022-09-13T18:36:33.498Z,17.13
2022-09-13T18:39:21.895Z,6.93
2022-09-13T18:42:07.941Z,5.10
2022-09-13T18:44:53.888Z,4.45
2022-09-13T18:47:39.837Z,4.95
2022-09-13T18:50:26.434Z,5.72
2022-09-13T18:53:12.224Z,4.22
2022-09-13T18:56:01.357Z,4.70
2022-09-13T18:58:47.759Z,3.00
2022-09-13T19:01:39.836Z,3.55
2022-09-13T19:04:25.789Z,4.55
2022-09-13T19:07:11.989Z,5.68
2022-09-13T19:09:58.186Z,5.15
2022-09-13T19:12:44.152Z,4.70
2022-09-13T19:15:31.167Z,4.80
2022-09-13T19:18:17.162Z,5.95
2022-09-13T19:21:05.314Z,4.97
2022-09-13T19:23:59.471Z,4.25
2022-09-13T19:26:48.934Z,3.55
2022-09-13T19:29:34.942Z,3.88
2022-09-13T19:32:20.975Z,4.70
2022-09-13T19:35:07.423Z,4.22
2022-09-13T19:37:54.182Z,3.63
2022-09-13T19:40:40.243Z,3.65
2022-09-13T19:43:29.660Z,4.22
2022-09-13T19:46:17.398Z,3.03
2022-09-13T19:49:04.444Z,3.42
2022-09-13T19:51:52.192Z,3.13
2022-09-13T19:54:38.289Z,3.90
2022-09-13T19:57:24.381Z,3.10
2022-09-13T20:00:10.714Z,3.70
2022-09-13T20:02:56.952Z,3.80
2022-09-13T20:05:42.990Z,4.68
2022-09-13T20:08:29.156Z,3.80
2022-09-13T20:11:17.945Z,3.33
2022-09-13T20:14:05.731Z,3.72
2022-09-13T20:16:51.803Z,4.47
2022-09-13T20:19:43.827Z,3.88
2022-09-13T20:22:32.376Z,3.67
2022-09-13T20:25:19.097Z,3.60
2022-09-13T20:28:05.879Z,4.68
2022-09-13T20:30:56.562Z,5.43
2022-09-13T20:33:43.609Z,4.65
2022-09-13T20:36:31.436Z,3.72
2022-09-13T20:39:18.283Z,4.15
2022-09-13T20:42:04.254Z,4.57
2022-09-13T20:44:50.358Z,4.15
2022-09-13T20:47:36.620Z,3.92
2022-09-13T20:50:22.504Z,3.88
2022-09-13T20:53:08.440Z,3.13
2022-09-13T20:55:54.585Z,3.58
2022-09-13T20:58:41.509Z,3.20
2022-09-13T21:01:29.749Z,3.58
2022-09-13T21:04:17.576Z,3.67
2022-09-13T21:07:23.186Z,5.25
2022-09-13T21:10:09.412Z,3.22
2022-09-13T21:12:56.269Z,3.63
2022-09-13T21:15:42.190Z,5.22
2022-09-13T21:18:29.910Z,4.60
2022-09-13T21:21:21.798Z,3.50
2022-09-13T21:24:13.345Z,3.35
2022-09-13T21:26:59.373Z,3.10
2022-09-13T21:29:45.004Z,3.30
2022-09-13T21:32:30.829Z,4.05
2022-09-13T21:35:16.770Z,4.28
2022-09-13T21:38:02.508Z,5.43
2022-09-13T21:41:10.433Z,5.85
2022-09-13T21:44:01.786Z,6.07
2022-09-13T21:46:47.612Z,5.57
2022-09-13T21:49:33.547Z,4.95
2022-09-13T21:52:19.898Z,4.47
2022-09-13T21:55:06.110Z,4.22
2022-09-13T21:57:52.222Z,4.57
2022-09-13T22:00:39.687Z,3.75
2022-09-13T22:03:25.400Z,4.00
2022-09-13T22:06:12.191Z,3.17
2022-09-13T22:09:00.304Z,3.53
2022-09-13T22:11:48.035Z,3.80
2022-09-13T22:14:34.114Z,3.45
2022-09-13T22:17:20.014Z,3.33
2022-09-13T22:20:06.261Z,3.65
2022-09-13T22:22:51.883Z,3.03
2022-09-13T22:25:40.944Z,3.38
2022-09-13T22:28:27.246Z,3.67
2022-09-13T22:31:16.897Z,3.50
2022-09-13T22:34:03.441Z,3.20
2022-09-13T22:36:50.143Z,3.72
2022-09-13T22:39:36.248Z,3.08
2022-09-13T22:42:21.899Z,3.00
2022-09-13T22:45:08.828Z,3.40
2022-09-13T22:47:54.722Z,2.67
2022-09-13T22:50:40.722Z,2.88
2022-09-13T22:53:27.003Z,2.35
2022-09-13T22:56:14.623Z,2.30
2022-09-13T22:59:05.490Z,2.80
2022-09-13T23:01:51.572Z,2.67
2022-09-13T23:04:37.430Z,2.75
2022-09-13T23:07:23.330Z,2.45
2022-09-13T23:10:09.095Z,2.03
2022-09-13T23:12:55.862Z,2.55
2022-09-13T23:15:41.834Z,2.45
2022-09-13T23:18:27.581Z,2.40
2022-09-13T23:21:13.478Z,2.42
2022-09-13T23:24:00.784Z,2.47
2022-09-13T23:26:47.236Z,2.17
2022-09-13T23:29:32.971Z,2.30
2022-09-13T23:32:18.678Z,2.00
2022-09-13T23:35:04.728Z,1.98
2022-09-13T23:37:50.670Z,1.70
2022-09-13T23:40:36.685Z,2.03
2022-09-13T23:43:22.202Z,6.05
2022-09-13T23:46:08.060Z,2.60
2022-09-13T23:48:54.033Z,1.75
2022-09-13T23:51:39.991Z,2.40
2022-09-13T23:54:25.883Z,2.05
2022-09-13T23:57:11.663Z,2.08
2022-09-13T23:59:57.446Z,1.70
